createdAt,value
2019-05-06T00:02:35.113Z,32
2019-05-06T00:12:38.589Z,32
2019-05-06T00:22:43.818Z,32
2019-05-06T00:32:47.234Z,32
2019-05-06T00:42:50.696Z,32
2019-05-06T00:52:54.254Z,32
2019-05-06T01:02:57.720Z,32
2019-05-06T01:13:01.166Z,32
2019-05-06T01:23:04.600Z,32
2019-05-06T01:33:08.010Z,32
2019-05-06T01:43:11.464Z,32
2019-05-06T01:53:14.886Z,31
2019-05-06T02:03:18.317Z,32
2019-05-06T02:13:24.051Z,31
2019-05-06T02:23:27.450Z,32
2019-05-06T02:33:30.904Z,32
2019-05-06T02:43:35.027Z,32
2019-05-06T02:53:38.484Z,31
2019-05-06T03:03:44.050Z,32
2019-05-06T03:13:47.505Z,33
2019-05-06T03:23:54.663Z,32
2019-05-06T03:35:14.607Z,32
2019-05-06T03:45:39.463Z,32
2019-05-06T03:55:47.485Z,31
2019-05-06T04:05:56.175Z,32
2019-05-06T04:15:59.650Z,32
2019-05-06T04:26:03.988Z,32
2019-05-06T04:36:07.486Z,32
2019-05-06T04:46:17.316Z,33
2019-05-06T04:56:24.154Z,33
2019-05-06T05:06:27.648Z,34
2019-05-06T05:16:33.429Z,34
2019-05-06T05:26:36.883Z,34
2019-05-06T05:36:42.823Z,34
2019-05-06T05:46:46.247Z,35
2019-05-06T05:56:49.683Z,35
2019-05-06T06:06:53.159Z,35
2019-05-06T06:16:57.571Z,35
2019-05-06T06:27:03.445Z,33
2019-05-06T06:37:06.915Z,34
2019-05-06T06:47:12.404Z,34
2019-05-06T06:57:16.506Z,34
2019-05-06T07:07:19.945Z,33
2019-05-06T07:17:23.389Z,33
2019-05-06T07:27:26.837Z,33
2019-05-06T07:37:32.841Z,33
2019-05-06T07:47:36.325Z,33
2019-05-06T07:57:39.770Z,32
2019-05-06T08:07:43.191Z,32
2019-05-06T08:17:46.600Z,32
2019-05-06T08:27:50.041Z,31
2019-05-06T08:37:53.471Z,32
2019-05-06T08:47:56.908Z,32
2019-05-06T08:58:03.237Z,32
2019-05-06T09:08:06.702Z,32
2019-05-06T09:18:12.670Z,32
2019-05-06T09:28:16.192Z,32
2019-05-06T09:38:19.701Z,32
2019-05-06T09:48:23.157Z,32
2019-05-06T09:58:26.589Z,32
2019-05-06T10:08:32.654Z,32
2019-05-06T10:18:36.106Z,32
2019-05-06T10:28:39.562Z,32
2019-05-06T10:38:43.019Z,32
2019-05-06T10:48:46.464Z,32
2019-05-06T10:58:52.581Z,32
2019-05-06T11:08:56.293Z,32
2019-05-06T11:18:59.741Z,32
2019-05-06T11:29:06.014Z,32
2019-05-06T11:39:09.475Z,32
2019-05-06T11:49:12.924Z,33
2019-05-06T11:59:16.358Z,32
2019-05-06T12:09:22.521Z,32
2019-05-06T12:19:25.996Z,32
2019-05-06T12:29:29.468Z,33
2019-05-06T12:39:33.460Z,32
2019-05-06T12:49:36.912Z,33
2019-05-06T12:59:42.909Z,32
2019-05-06T13:09:46.293Z,32
2019-05-06T13:19:49.728Z,32
2019-05-06T13:29:53.154Z,33
2019-05-06T13:39:56.790Z,32
2019-05-06T13:50:03.121Z,32
2019-05-06T14:00:06.574Z,32
2019-05-06T14:10:09.972Z,32
2019-05-06T14:20:13.409Z,34
2019-05-06T14:30:16.898Z,32
2019-05-06T14:40:22.739Z,33
2019-05-06T14:50:48.690Z,32
2019-05-06T15:00:56.152Z,34
2019-05-06T15:10:59.577Z,33
2019-05-06T15:21:39.058Z,32
2019-05-06T15:31:46.034Z,32
2019-05-06T15:41:49.510Z,32
2019-05-06T15:51:52.962Z,32
2019-05-06T16:01:56.404Z,32
2019-05-06T16:11:59.859Z,32
2019-05-06T16:22:04.477Z,32
2019-05-06T16:32:07.936Z,32
2019-05-06T16:42:13.570Z,32
2019-05-06T16:52:17.136Z,32
2019-05-06T17:02:22.842Z,32
2019-05-06T17:12:32.492Z,33
2019-05-06T17:22:35.924Z,32
2019-05-06T17:32:42.339Z,32
2019-05-06T17:42:45.803Z,32
2019-05-06T17:52:49.220Z,32
2019-05-06T18:02:52.932Z,33
2019-05-06T18:12:56.388Z,33
2019-05-06T18:23:02.332Z,36
2019-05-06T18:33:06.783Z,36
2019-05-06T18:43:12.513Z,34
2019-05-06T18:53:16.268Z,34
2019-05-06T19:03:19.703Z,34
2019-05-06T19:13:23.222Z,36
2019-05-06T19:23:26.695Z,37
2019-05-06T19:33:35.082Z,37
2019-05-06T19:43:38.544Z,35
2019-05-06T19:53:43.132Z,34
2019-05-06T20:03:46.548Z,33
2019-05-06T20:13:50.021Z,33
2019-05-06T20:23:55.920Z,34
2019-05-06T20:33:59.394Z,34
2019-05-06T20:44:03.066Z,34
2019-05-06T20:54:06.525Z,33
2019-05-06T21:04:10.026Z,33
2019-05-06T21:14:13.617Z,34
2019-05-06T21:24:17.062Z,39
2019-05-06T21:34:22.593Z,34
2019-05-06T21:44:26.045Z,34
2019-05-06T21:54:29.472Z,33
2019-05-06T22:04:33.043Z,33
2019-05-06T22:14:36.501Z,33
2019-05-06T22:24:39.942Z,33
2019-05-06T22:34:43.397Z,32
2019-05-06T22:44:46.833Z,32
2019-05-06T22:54:50.251Z,33
2019-05-06T23:04:56.066Z,32
2019-05-06T23:14:59.489Z,34
2019-05-06T23:25:02.953Z,34
2019-05-06T23:35:06.399Z,34
2019-05-06T23:45:12.237Z,33
2019-05-06T23:55:15.702Z,33
